Weather at Cherry Ridge Airport

Public forecast

Using degrees Fahrenheit for public forecast. Weather courtesy of forecast.io.

Closest aviation weather report (METAR) to Cherry Ridge Airport

Closest report is Sullivan County International Airport, 23.3 nm (43.2 km) ENE. Retrieved 2020/09/29 06:03 UTC (16 minutes ago):

KMSV 290603Z AUTO 19006KT 10SM OVC008 18/17 A2991 RMK AO2 CIG 006V011

Closest aviation forecast (TAF) to Cherry Ridge Airport

Closest forecast is Wilkes Barre Scranton International Airport, 23.7 nm (44.0 km) WSW. Retrieved 2020/09/29 06:22 UTC (0 seconds ago):

TAF KAVP 290520Z 2906/3006 20007KT P6SM OVC035 FM291000 18008KT P6SM BKN025 FM291200 21005KT 4SM BR FEW009 BKN015 FM292000 VRB03KT 4SM -RA BR OVC015 FM300200 35010KT 4SM -RA BR OVC007